TimeCDT,TemperatureF,Dew PointF,Humidity,Sea Level PressureIn,VisibilityMPH,Wind Direction,Wind SpeedMPH,Gust SpeedMPH,PrecipitationIn,Events,Conditions,WindDirDegrees,DateUTC
12:15 AM,31.5,31.5,100,30.32,5.0,Calm,Calm,-,N/A,,Clear,0,2013-09-16 05:15:00
12:35 AM,30.9,30.9,100,30.33,1.2,Calm,Calm,-,N/A,,Mist,0,2013-09-16 05:35:00
12:55 AM,30.7,30.7,100,30.34,10.0,Calm,Calm,-,N/A,,Clear,0,2013-09-16 05:55:00
1:15 AM,30.6,30.6,100,30.34,3.0,Calm,Calm,-,N/A,,Clear,0,2013-09-16 06:15:00
1:35 AM,30.2,30.2,100,30.34,10.0,Calm,Calm,-,N/A,,Clear,0,2013-09-16 06:35:00
1:55 AM,30.0,30.0,100,30.35,5.0,Calm,Calm,-,N/A,,Clear,0,2013-09-16 06:55:00
2:15 AM,29.8,29.8,100,30.35,10.0,Calm,Calm,-,N/A,,Clear,0,2013-09-16 07:15:00
2:35 AM,29.8,29.7,99,30.35,10.0,Calm,Calm,-,N/A,,Clear,0,2013-09-16 07:35:00
2:55 AM,29.3,29.3,100,30.35,10.0,Calm,Calm,-,N/A,,Clear,0,2013-09-16 07:55:00
3:15 AM,29.3,29.3,100,30.35,10.0,Calm,Calm,-,N/A,,Clear,0,2013-09-16 08:15:00
3:35 AM,28.9,28.4,98,30.36,10.0,Calm,Calm,-,N/A,,Clear,0,2013-09-16 08:35:00
3:55 AM,29.5,29.3,99,30.37,10.0,Calm,Calm,-,N/A,,Clear,0,2013-09-16 08:55:00
4:15 AM,29.3,28.9,99,30.37,10.0,Calm,Calm,-,N/A,,Clear,0,2013-09-16 09:15:00
4:35 AM,29.1,28.8,99,30.38,10.0,Calm,Calm,-,N/A,,Clear,0,2013-09-16 09:35:00
4:55 AM,28.9,28.4,98,30.38,7.0,Calm,Calm,-,N/A,,Scattered Clouds,0,2013-09-16 09:55:00
5:15 AM,28.4,27.9,98,30.39,10.0,Calm,Calm,-,N/A,,Scattered Clouds,0,2013-09-16 10:15:00
5:35 AM,28.9,28.6,99,30.38,10.0,Calm,Calm,-,N/A,,Clear,0,2013-09-16 10:35:00
5:55 AM,28.8,28.2,98,30.39,10.0,Calm,Calm,-,N/A,,Clear,0,2013-09-16 10:55:00
6:15 AM,28.4,27.7,97,30.40,10.0,Calm,Calm,-,N/A,,Clear,0,2013-09-16 11:15:00
6:35 AM,28.4,27.9,98,30.40,10.0,Calm,Calm,-,N/A,,Scattered Clouds,0,2013-09-16 11:35:00
6:55 AM,27.9,27.3,98,30.41,10.0,Calm,Calm,-,N/A,,Scattered Clouds,0,2013-09-16 11:55:00
7:15 AM,29.1,28.4,97,30.42,10.0,Calm,Calm,-,N/A,,Clear,0,2013-09-16 12:15:00
7:35 AM,31.1,30.9,99,30.42,7.0,Calm,Calm,-,N/A,,Clear,0,2013-09-16 12:35:00
7:55 AM,33.4,33.1,99,30.42,10.0,Calm,Calm,-,0.01,,Clear,0,2013-09-16 12:55:00
8:15 AM,37.8,37.2,98,30.43,7.0,Calm,Calm,-,0.03,,Clear,0,2013-09-16 13:15:00
8:35 AM,42.4,40.8,94,30.42,10.0,Calm,Calm,-,0.06,,Clear,0,2013-09-16 13:35:00
8:55 AM,46.4,40.6,80,30.43,10.0,Calm,Calm,-,0.08,,Clear,0,2013-09-16 13:55:00
9:15 AM,47.5,39.2,73,30.44,10.0,NE,3.5,-,0.02,,Clear,40,2013-09-16 14:15:00
9:35 AM,48.9,37.0,64,30.44,10.0,ENE,3.5,-,0.04,,Clear,70,2013-09-16 14:35:00
9:55 AM,50.4,37.0,60,30.44,10.0,East,4.6,-,0.06,,Clear,80,2013-09-16 14:55:00
10:15 AM,50.9,36.0,57,30.44,10.0,East,3.5,-,0.01,,Clear,80,2013-09-16 15:15:00
10:35 AM,51.6,37.8,59,30.44,10.0,Calm,Calm,-,0.02,,Clear,0,2013-09-16 15:35:00
10:55 AM,52.2,37.4,57,30.44,10.0,East,3.5,-,0.04,,Clear,90,2013-09-16 15:55:00
11:15 AM,53.4,38.1,56,30.44,10.0,NNE,5.8,-,N/A,,Clear,20,2013-09-16 16:15:00
11:35 AM,53.2,35.2,51,30.43,10.0,Calm,Calm,-,0.01,,Clear,0,2013-09-16 16:35:00
11:55 AM,54.3,36.1,50,30.43,10.0,Calm,Calm,-,0.01,,Clear,0,2013-09-16 16:55:00
12:15 PM,55.4,35.4,47,30.43,10.0,Calm,Calm,-,N/A,,Clear,0,2013-09-16 17:15:00
12:35 PM,57.2,37.6,48,30.42,10.0,NE,3.5,-,N/A,,Clear,40,2013-09-16 17:35:00
12:55 PM,57.4,36.0,45,30.42,10.0,Calm,Calm,-,N/A,,Clear,0,2013-09-16 17:55:00
1:15 PM,57.4,35.1,43,30.42,10.0,NNE,3.5,-,N/A,,Clear,20,2013-09-16 18:15:00
1:35 PM,58.5,35.1,42,30.41,10.0,SSE,3.5,-,N/A,,Clear,150,2013-09-16 18:35:00
1:55 PM,59.2,37.4,44,30.41,10.0,NNE,3.5,-,N/A,,Clear,20,2013-09-16 18:55:00
2:15 PM,59.4,37.4,44,30.39,10.0,North,4.6,-,N/A,,Clear,360,2013-09-16 19:15:00
2:35 PM,59.7,36.7,42,30.39,10.0,SE,5.8,-,N/A,,Clear,130,2013-09-16 19:35:00
2:55 PM,60.4,36.0,40,30.38,10.0,ESE,6.9,-,N/A,,Clear,110,2013-09-16 19:55:00
3:15 PM,60.1,35.1,39,30.38,10.0,SSE,3.5,-,N/A,,Clear,150,2013-09-16 20:15:00
3:35 PM,60.8,35.1,38,30.37,10.0,SE,4.6,-,N/A,,Clear,140,2013-09-16 20:35:00
3:55 PM,60.6,33.6,36,30.37,10.0,SSW,4.6,-,N/A,,Clear,200,2013-09-16 20:55:00
4:15 PM,61.0,32.9,35,30.37,10.0,Calm,Calm,-,N/A,,Clear,0,2013-09-16 21:15:00
4:35 PM,61.0,30.9,32,30.36,10.0,Calm,Calm,-,N/A,,Clear,0,2013-09-16 21:35:00
4:55 PM,61.3,34.5,37,30.36,10.0,SSW,3.5,-,N/A,,Clear,210,2013-09-16 21:55:00
5:15 PM,60.8,32.4,34,30.35,10.0,Calm,Calm,-,N/A,,Clear,0,2013-09-16 22:15:00
5:35 PM,60.4,33.6,37,30.35,10.0,Calm,Calm,-,N/A,,Clear,0,2013-09-16 22:35:00
5:55 PM,59.9,33.6,37,30.35,10.0,Calm,Calm,-,N/A,,Clear,0,2013-09-16 22:55:00
6:15 PM,58.8,37.4,45,30.35,10.0,Calm,Calm,-,N/A,,Clear,0,2013-09-16 23:15:00
6:35 PM,54.7,42.6,64,30.34,10.0,Calm,Calm,-,N/A,,Clear,0,2013-09-16 23:35:00
6:55 PM,48.2,43.7,84,30.34,10.0,Calm,Calm,-,N/A,,Clear,0,2013-09-16 23:55:00
7:15 PM,46.0,42.8,88,30.34,10.0,Calm,Calm,-,N/A,,Clear,0,2013-09-17 00:15:00
7:35 PM,44.1,41.7,91,30.34,10.0,Calm,Calm,-,N/A,,Clear,0,2013-09-17 00:35:00
7:55 PM,42.6,40.8,93,30.34,10.0,Calm,Calm,-,N/A,,Clear,0,2013-09-17 00:55:00
8:15 PM,41.2,40.1,96,30.34,10.0,Calm,Calm,-,N/A,,Clear,0,2013-09-17 01:15:00
8:35 PM,40.1,39.2,97,30.34,10.0,Calm,Calm,-,N/A,,Clear,0,2013-09-17 01:35:00
8:55 PM,39.0,38.3,97,30.34,10.0,Calm,Calm,-,N/A,,Clear,0,2013-09-17 01:55:00
9:15 PM,37.9,37.4,98,30.34,10.0,Calm,Calm,-,N/A,,Clear,0,2013-09-17 02:15:00
9:35 PM,37.4,36.9,98,30.34,10.0,Calm,Calm,-,N/A,,Clear,0,2013-09-17 02:35:00
9:55 PM,36.5,36.1,99,30.34,4.0,Calm,Calm,-,N/A,,Clear,0,2013-09-17 02:55:00
10:15 PM,35.8,35.4,99,30.34,10.0,Calm,Calm,-,N/A,,Clear,0,2013-09-17 03:15:00
10:35 PM,35.2,35.1,99,30.34,10.0,Calm,Calm,-,N/A,,Clear,0,2013-09-17 03:35:00
10:55 PM,35.2,35.1,99,30.34,10.0,Calm,Calm,-,N/A,,Clear,0,2013-09-17 03:55:00
11:15 PM,36.1,35.6,98,30.34,10.0,Calm,Calm,-,N/A,,Clear,0,2013-09-17 04:15:00
11:35 PM,35.1,34.0,96,30.34,10.0,Calm,Calm,-,N/A,,Clear,0,2013-09-17 04:35:00
11:55 PM,34.7,34.0,97,30.34,10.0,Calm,Calm,-,N/A,,Clear,0,2013-09-17 04:55:00